createdAt,value
2023-02-23T00:02:07.943Z,5.63
2023-02-23T00:04:35.985Z,5.78
2023-02-23T00:07:03.753Z,6.15
2023-02-23T00:09:35.533Z,6.07
2023-02-23T00:12:09.676Z,7.65
2023-02-23T00:14:38.847Z,5.95
2023-02-23T00:17:14.154Z,6.30
2023-02-23T00:19:43.386Z,5.95
2023-02-23T00:22:10.727Z,5.43
2023-02-23T00:24:38.792Z,4.55
2023-02-23T00:27:06.660Z,4.82
2023-02-23T00:29:39.411Z,5.55
2023-02-23T00:34:36.650Z,4.75
2023-02-23T00:37:04.956Z,5.07
2023-02-23T00:39:32.026Z,5.20
2023-02-23T00:42:02.849Z,4.95
2023-02-23T00:44:31.839Z,6.57
2023-02-23T00:46:59.394Z,5.07
2023-02-23T00:49:27.298Z,6.32
2023-02-23T00:51:54.675Z,6.65
2023-02-23T00:54:22.213Z,5.93
2023-02-23T00:56:50.764Z,5.82
2023-02-23T00:59:18.939Z,5.68
2023-02-23T01:01:47.010Z,7.30
2023-02-23T01:04:14.938Z,7.10
2023-02-23T01:06:43.138Z,8.05
2023-02-23T01:09:21.838Z,7.72
2023-02-23T01:11:49.726Z,8.32
2023-02-23T01:14:16.743Z,6.85
2023-02-23T01:16:44.119Z,8.65
2023-02-23T01:19:11.321Z,6.82
2023-02-23T01:21:42.525Z,6.10
2023-02-23T01:24:11.879Z,6.03
2023-02-23T01:26:43.281Z,6.00
2023-02-23T01:29:15.661Z,7.93
2023-02-23T01:34:18.146Z,5.65
2023-02-23T01:36:45.521Z,6.70
2023-02-23T01:39:17.224Z,5.35
2023-02-23T01:41:45.843Z,5.75
2023-02-23T01:44:12.843Z,5.57
2023-02-23T01:46:45.990Z,5.25
2023-02-23T01:49:29.361Z,5.97
2023-02-23T01:52:12.894Z,5.80
2023-02-23T01:54:50.364Z,6.22
2023-02-23T01:57:21.895Z,6.85
2023-02-23T01:59:50.215Z,8.70
2023-02-23T02:02:22.336Z,7.65
2023-02-23T02:04:52.074Z,8.80
2023-02-23T02:07:28.789Z,6.72
2023-02-23T02:10:10.796Z,8.30
2023-02-23T02:12:54.777Z,7.20
2023-02-23T02:15:27.126Z,6.13
2023-02-23T02:18:31.941Z,7.28
2023-02-23T02:21:24.200Z,6.78
2023-02-23T02:24:32.895Z,6.68
2023-02-23T02:27:57.592Z,6.97
2023-02-23T02:31:24.086Z,7.63
2023-02-23T02:34:39.005Z,7.38
2023-02-23T02:37:35.244Z,8.43
2023-02-23T02:40:21.277Z,9.30
2023-02-23T02:43:38.685Z,8.98
2023-02-23T02:46:27.075Z,8.23
2023-02-23T02:49:08.749Z,6.70
2023-02-23T02:51:55.304Z,6.57
2023-02-23T02:54:45.344Z,6.25
2023-02-23T02:57:13.828Z,6.10
2023-02-23T03:00:06.599Z,6.38
2023-02-23T03:02:57.787Z,5.93
2023-02-23T03:06:06.542Z,7.15
2023-02-23T03:09:13.071Z,5.97
2023-02-23T03:12:21.131Z,5.88
2023-02-23T03:15:19.525Z,9.07
2023-02-23T03:18:11.392Z,9.30
2023-02-23T03:21:15.245Z,9.82
2023-02-23T03:24:23.389Z,9.77
2023-02-23T03:27:42.093Z,9.27
2023-02-23T03:30:45.352Z,9.10
2023-02-23T03:33:42.827Z,8.25
2023-02-23T03:36:40.269Z,7.05
2023-02-23T03:39:56.553Z,9.90
2023-02-23T03:42:49.944Z,8.02
2023-02-23T03:45:42.182Z,6.35
2023-02-23T03:48:31.872Z,6.07
2023-02-23T03:51:27.413Z,5.97
2023-02-23T03:54:28.216Z,6.05
2023-02-23T03:57:17.980Z,6.22
2023-02-23T04:00:11.983Z,6.75
2023-02-23T04:03:06.971Z,6.20
2023-02-23T04:05:58.467Z,5.82
2023-02-23T04:08:53.268Z,5.72
2023-02-23T04:12:02.277Z,5.47
2023-02-23T04:14:38.524Z,6.18
2023-02-23T04:17:09.471Z,6.10
2023-02-23T04:19:36.805Z,5.90
2023-02-23T04:22:04.099Z,6.70
2023-02-23T04:24:31.095Z,5.88
2023-02-23T04:26:58.342Z,6.47
2023-02-23T04:29:25.300Z,6.43
2023-02-23T04:31:54.458Z,9.95
2023-02-23T04:34:21.499Z,7.90
2023-02-23T04:36:51.184Z,6.53
2023-02-23T04:39:18.228Z,6.35
2023-02-23T04:41:45.818Z,6.75
2023-02-23T04:44:13.197Z,6.97
2023-02-23T04:46:40.377Z,7.75
2023-02-23T04:49:07.323Z,7.22
2023-02-23T04:51:36.563Z,6.88
2023-02-23T04:54:04.964Z,6.80
2023-02-23T04:56:32.407Z,9.60
2023-02-23T04:59:00.204Z,9.63
2023-02-23T05:01:29.296Z,10.57
2023-02-23T05:03:56.257Z,7.45
2023-02-23T05:06:23.500Z,8.20
2023-02-23T05:08:50.483Z,7.05
2023-02-23T05:11:18.236Z,6.90
2023-02-23T05:13:45.292Z,7.32
2023-02-23T05:16:12.757Z,7.43
2023-02-23T05:18:39.922Z,7.60
2023-02-23T05:21:10.695Z,8.27
2023-02-23T05:23:39.053Z,9.00
2023-02-23T05:26:11.731Z,9.20
2023-02-23T05:28:41.873Z,8.73
2023-02-23T05:31:10.330Z,8.63
2023-02-23T05:33:45.956Z,8.85
2023-02-23T05:36:17.456Z,7.93
2023-02-23T05:38:46.105Z,7.88
2023-02-23T05:41:17.507Z,7.45
2023-02-23T05:43:44.831Z,7.32
2023-02-23T05:46:17.328Z,10.27
2023-02-23T05:48:44.472Z,9.38
2023-02-23T05:51:15.486Z,7.80
2023-02-23T05:53:43.366Z,8.52
2023-02-23T05:56:20.825Z,8.63
2023-02-23T05:58:50.248Z,10.40
2023-02-23T06:01:18.387Z,8.55
2023-02-23T06:03:46.155Z,9.35
2023-02-23T06:06:14.394Z,10.45
2023-02-23T06:08:41.958Z,10.23
2023-02-23T06:11:10.232Z,9.80
2023-02-23T06:13:37.213Z,10.63
2023-02-23T06:16:05.237Z,9.80
2023-02-23T06:18:32.245Z,12.48
2023-02-23T06:21:01.804Z,12.00
2023-02-23T06:23:30.508Z,9.55
2023-02-23T06:25:59.477Z,13.25
2023-02-23T06:28:28.249Z,11.77
2023-02-23T06:30:56.891Z,13.38
2023-02-23T06:33:24.174Z,11.77
2023-02-23T06:35:52.543Z,11.23
2023-02-23T06:38:20.410Z,8.73
2023-02-23T06:40:47.852Z,10.40
2023-02-23T06:43:14.854Z,10.85
2023-02-23T06:45:42.112Z,11.32
2023-02-23T06:48:09.170Z,9.98
2023-02-23T06:50:36.401Z,8.43
2023-02-23T06:53:03.573Z,7.97
2023-02-23T06:55:31.035Z,11.35
2023-02-23T06:57:58.273Z,9.07
2023-02-23T07:00:25.759Z,9.93
2023-02-23T07:02:52.754Z,10.52
2023-02-23T07:05:21.030Z,7.90
2023-02-23T07:07:48.199Z,11.18
2023-02-23T07:10:15.562Z,10.50
2023-02-23T07:12:42.575Z,9.77
2023-02-23T07:15:11.523Z,11.00
2023-02-23T07:17:38.874Z,11.45
2023-02-23T07:20:06.888Z,9.82
2023-02-23T07:22:34.300Z,10.20
2023-02-23T07:25:01.586Z,11.15
2023-02-23T07:27:28.816Z,11.73
2023-02-23T07:29:55.999Z,11.00
2023-02-23T07:32:23.145Z,11.38
2023-02-23T07:34:53.433Z,10.60
2023-02-23T07:37:21.414Z,9.20
2023-02-23T07:39:48.735Z,8.77
2023-02-23T07:42:15.735Z,10.57
2023-02-23T07:44:43.086Z,11.60
2023-02-23T07:47:11.067Z,12.52
2023-02-23T07:49:38.372Z,14.05
2023-02-23T07:52:05.441Z,12.07
2023-02-23T07:54:33.162Z,11.52
2023-02-23T07:57:00.607Z,12.30
2023-02-23T07:59:28.600Z,11.45
2023-02-23T08:01:55.548Z,10.82
2023-02-23T08:04:22.907Z,11.77
2023-02-23T08:06:49.941Z,10.80
2023-02-23T08:09:17.261Z,11.18
2023-02-23T08:11:45.055Z,10.90
2023-02-23T08:14:12.952Z,12.63
2023-02-23T08:16:40.099Z,10.93
2023-02-23T08:19:07.500Z,11.95
2023-02-23T08:21:34.428Z,12.18
2023-02-23T08:24:01.658Z,9.60
2023-02-23T08:26:28.722Z,12.75
2023-02-23T08:28:56.119Z,8.85
2023-02-23T08:31:24.712Z,8.20
2023-02-23T08:33:56.282Z,8.05
2023-02-23T08:36:23.212Z,7.72
2023-02-23T08:38:51.092Z,8.13
2023-02-23T08:41:18.357Z,11.27
2023-02-23T08:43:46.232Z,10.93
2023-02-23T08:46:13.930Z,12.02
2023-02-23T08:48:41.392Z,8.45
2023-02-23T08:51:09.040Z,12.00
2023-02-23T08:53:36.607Z,8.32
2023-02-23T08:56:07.630Z,8.65
2023-02-23T08:58:36.783Z,9.15
2023-02-23T09:01:05.113Z,8.52
2023-02-23T09:03:38.257Z,7.85
2023-02-23T09:06:16.878Z,8.45
2023-02-23T09:08:44.366Z,10.70
2023-02-23T09:11:11.301Z,8.80
2023-02-23T09:13:38.580Z,8.07
2023-02-23T09:16:10.169Z,7.82
2023-02-23T09:18:38.723Z,8.65
2023-02-23T09:21:14.356Z,7.97
2023-02-23T09:23:41.773Z,8.43
2023-02-23T09:26:09.019Z,9.88
2023-02-23T09:28:38.166Z,9.23
2023-02-23T09:31:11.874Z,13.02
2023-02-23T09:33:40.503Z,13.60
2023-02-23T09:36:16.131Z,11.10
2023-02-23T09:38:49.580Z,10.85
2023-02-23T09:41:25.888Z,12.48
2023-02-23T09:44:17.362Z,12.40
2023-02-23T09:47:24.024Z,12.13
2023-02-23T09:49:53.429Z,11.95
2023-02-23T09:52:28.028Z,11.55
2023-02-23T09:54:55.782Z,9.55
2023-02-23T09:57:43.702Z,9.43
2023-02-23T10:00:20.087Z,11.52
2023-02-23T10:03:17.131Z,14.05
2023-02-23T10:05:59.506Z,12.15
2023-02-23T10:09:03.851Z,11.73
2023-02-23T10:12:11.337Z,14.70
2023-02-23T10:15:07.283Z,13.18
2023-02-23T10:18:04.140Z,15.32
2023-02-23T10:21:05.934Z,13.68
2023-02-23T10:23:58.169Z,13.35
2023-02-23T10:26:47.264Z,11.40
2023-02-23T10:29:28.886Z,10.63
2023-02-23T10:32:39.016Z,13.85
2023-02-23T10:35:20.391Z,13.80
2023-02-23T10:37:49.883Z,13.95
2023-02-23T10:40:25.331Z,11.27
2023-02-23T10:42:54.081Z,10.48
2023-02-23T10:45:28.537Z,10.85
2023-02-23T10:48:05.573Z,13.10
2023-02-23T10:50:37.643Z,14.00
2023-02-23T10:53:16.620Z,14.65
2023-02-23T10:55:45.605Z,14.05
2023-02-23T10:58:20.761Z,12.45
2023-02-23T11:01:01.866Z,10.80
2023-02-23T11:03:57.723Z,13.85
2023-02-23T11:06:42.984Z,12.18
2023-02-23T11:09:44.436Z,12.43
2023-02-23T11:12:26.368Z,11.60
2023-02-23T11:14:57.255Z,13.32
2023-02-23T11:17:36.305Z,13.80
2023-02-23T11:20:35.937Z,10.85
2023-02-23T11:23:14.706Z,11.52
2023-02-23T11:25:45.477Z,12.35
2023-02-23T11:28:30.453Z,13.70
2023-02-23T11:31:16.095Z,13.80
2023-02-23T11:33:45.894Z,14.30
2023-02-23T11:36:28.478Z,11.07
2023-02-23T11:41:37.028Z,13.23
2023-02-23T11:44:06.260Z,14.45
2023-02-23T11:46:39.173Z,13.02
2023-02-23T11:49:15.394Z,12.05
2023-02-23T11:51:49.842Z,13.88
2023-02-23T11:54:27.345Z,14.00
2023-02-23T11:56:55.446Z,15.00
2023-02-23T11:59:35.524Z,13.15
2023-02-23T12:02:27.097Z,14.00
2023-02-23T12:05:23.137Z,11.05
2023-02-23T12:08:02.701Z,13.68
2023-02-23T12:10:39.232Z,13.25
2023-02-23T12:13:32.661Z,11.43
2023-02-23T12:16:24.846Z,14.57
2023-02-23T12:19:23.796Z,13.38
2023-02-23T12:22:06.536Z,11.25
2023-02-23T12:25:12.353Z,14.30
2023-02-23T12:27:50.608Z,13.10
2023-02-23T12:30:27.610Z,10.93
2023-02-23T12:33:40.837Z,12.88
2023-02-23T12:36:39.438Z,12.50
2023-02-23T12:39:27.762Z,13.48
2023-02-23T12:42:01.426Z,13.10
2023-02-23T12:44:46.372Z,13.80
2023-02-23T12:47:39.584Z,11.38
2023-02-23T12:50:26.033Z,10.98
2023-02-23T12:53:21.082Z,12.93
2023-02-23T12:56:23.587Z,14.77
2023-02-23T12:58:58.369Z,13.53
2023-02-23T13:01:35.301Z,15.10
2023-02-23T13:04:12.841Z,13.40
2023-02-23T13:07:12.267Z,12.85
2023-02-23T13:10:02.665Z,11.77
2023-02-23T13:13:25.717Z,10.40
2023-02-23T13:16:24.152Z,14.18
2023-02-23T13:18:52.124Z,14.10
2023-02-23T13:21:25.139Z,11.07
2023-02-23T13:24:13.887Z,11.65
2023-02-23T13:27:32.331Z,10.48
2023-02-23T13:30:00.485Z,13.25
2023-02-23T13:32:33.590Z,15.55
2023-02-23T13:35:06.989Z,11.90
2023-02-23T13:37:45.538Z,13.32
2023-02-23T13:40:53.615Z,13.63
2023-02-23T13:43:37.091Z,11.20
2023-02-23T13:46:30.764Z,12.25
2023-02-23T13:49:26.082Z,12.68
2023-02-23T13:52:00.745Z,10.07
2023-02-23T13:54:36.472Z,11.13
2023-02-23T13:57:16.594Z,11.30
2023-02-23T13:59:46.303Z,12.77
2023-02-23T14:02:36.575Z,13.02
2023-02-23T14:05:26.211Z,10.30
2023-02-23T14:08:04.426Z,11.35
2023-02-23T14:10:43.293Z,13.38
2023-02-23T14:13:13.482Z,10.32
2023-02-23T14:16:07.371Z,12.80
2023-02-23T14:18:35.543Z,12.73
2023-02-23T14:21:21.705Z,10.77
2023-02-23T14:24:26.625Z,12.95
2023-02-23T14:27:41.368Z,12.48
2023-02-23T14:30:12.020Z,12.63
2023-02-23T14:32:46.037Z,10.90
2023-02-23T14:35:32.066Z,12.85
2023-02-23T14:38:05.212Z,13.40
2023-02-23T14:40:40.219Z,13.55
2023-02-23T14:43:38.101Z,13.85
2023-02-23T14:46:21.432Z,14.13
2023-02-23T14:49:10.226Z,14.23
2023-02-23T14:51:42.062Z,13.48
2023-02-23T14:54:31.312Z,13.88
2023-02-23T14:57:03.624Z,13.23
2023-02-23T14:59:42.488Z,13.27
2023-02-23T15:02:19.266Z,15.02
2023-02-23T15:04:46.482Z,13.27
2023-02-23T15:07:34.886Z,16.70
2023-02-23T15:10:09.442Z,15.65
2023-02-23T15:12:39.061Z,16.23
2023-02-23T15:15:18.496Z,11.80
2023-02-23T15:17:50.390Z,13.90
2023-02-23T15:20:23.809Z,11.60
2023-02-23T15:22:59.233Z,11.18
2023-02-23T15:25:40.632Z,11.30
2023-02-23T15:28:20.341Z,9.57
2023-02-23T15:30:50.539Z,10.43
2023-02-23T15:33:32.349Z,9.95
2023-02-23T15:36:16.038Z,8.82
2023-02-23T15:38:49.427Z,11.73
2023-02-23T15:41:36.044Z,8.95
2023-02-23T15:44:22.813Z,8.82
2023-02-23T15:46:57.066Z,9.13
2023-02-23T15:49:33.850Z,9.40
2023-02-23T15:52:09.472Z,9.30
2023-02-23T15:55:10.020Z,8.32
2023-02-23T15:57:53.837Z,8.65
2023-02-23T16:00:38.385Z,7.93
2023-02-23T16:03:08.555Z,8.40
2023-02-23T16:05:47.124Z,7.72
2023-02-23T16:08:25.257Z,7.22
2023-02-23T16:11:04.072Z,7.45
2023-02-23T16:13:31.337Z,7.75
2023-02-23T16:15:58.991Z,7.38
2023-02-23T16:18:40.958Z,7.65
2023-02-23T16:21:16.810Z,7.72
2023-02-23T16:23:50.459Z,8.07
2023-02-23T16:26:26.710Z,6.80
2023-02-23T16:29:02.095Z,7.05
2023-02-23T16:31:44.238Z,7.20
2023-02-23T16:34:37.597Z,7.03
2023-02-23T16:37:18.235Z,7.10
2023-02-23T16:39:45.843Z,7.35
2023-02-23T16:42:35.916Z,8.00
2023-02-23T16:45:03.159Z,9.07
2023-02-23T16:47:41.409Z,8.43
2023-02-23T16:50:24.902Z,8.93
2023-02-23T16:52:53.655Z,10.50
2023-02-23T16:55:28.529Z,11.40
2023-02-23T16:58:07.814Z,13.25
2023-02-23T17:00:35.088Z,14.25
2023-02-23T17:03:05.533Z,13.88
2023-02-23T17:05:33.336Z,13.50
2023-02-23T17:08:00.665Z,13.52
2023-02-23T17:10:34.278Z,14.20
2023-02-23T17:13:08.770Z,13.82
2023-02-23T17:15:41.134Z,13.55
2023-02-23T17:20:35.218Z,13.23
2023-02-23T17:23:03.721Z,13.23
2023-02-23T17:25:31.112Z,14.13
2023-02-23T17:27:59.884Z,13.10
2023-02-23T17:30:28.446Z,13.27
2023-02-23T17:32:58.740Z,13.93
2023-02-23T17:35:26.836Z,15.07
2023-02-23T17:37:54.653Z,15.75
2023-02-23T17:40:29.107Z,14.90
2023-02-23T17:42:59.910Z,14.80
2023-02-23T17:45:28.469Z,14.68
2023-02-23T17:47:57.503Z,13.98
2023-02-23T17:50:27.034Z,13.38
2023-02-23T17:52:55.101Z,13.63
2023-02-23T17:55:23.414Z,13.48
2023-02-23T17:57:50.713Z,13.15
2023-02-23T18:00:20.006Z,12.73
2023-02-23T18:02:47.462Z,12.75
2023-02-23T18:05:15.214Z,12.38
2023-02-23T18:07:43.028Z,12.65
2023-02-23T18:10:13.324Z,12.00
2023-02-23T18:12:41.547Z,11.57
2023-02-23T18:15:09.265Z,12.45
2023-02-23T18:17:37.126Z,12.02
2023-02-23T18:20:06.715Z,12.02
2023-02-23T18:22:34.156Z,13.05
2023-02-23T18:25:05.731Z,12.48
2023-02-23T18:27:33.010Z,13.00
2023-02-23T18:29:59.934Z,13.20
2023-02-23T18:32:27.511Z,13.98
2023-02-23T18:34:55.758Z,14.35
2023-02-23T18:37:25.075Z,13.98
2023-02-23T18:39:54.291Z,14.55
2023-02-23T18:42:21.273Z,14.60
2023-02-23T18:44:48.770Z,14.05
2023-02-23T18:47:15.788Z,14.60
2023-02-23T18:49:43.166Z,16.20
2023-02-23T18:52:10.617Z,15.55
2023-02-23T18:54:39.762Z,16.25
2023-02-23T18:57:06.993Z,16.40
2023-02-23T18:59:34.483Z,17.27
2023-02-23T19:02:01.447Z,16.08
2023-02-23T19:04:28.657Z,18.13
2023-02-23T19:06:55.636Z,17.63
2023-02-23T19:09:22.933Z,17.95
2023-02-23T19:11:50.986Z,16.80
2023-02-23T19:14:32.889Z,16.23
2023-02-23T19:17:08.236Z,16.83
2023-02-23T19:19:35.600Z,18.20
2023-02-23T19:22:02.526Z,18.05
2023-02-23T19:24:29.759Z,18.92
2023-02-23T19:26:56.745Z,17.50
2023-02-23T19:29:23.964Z,19.20
2023-02-23T19:31:51.236Z,17.80
2023-02-23T19:34:18.745Z,19.15
2023-02-23T19:36:46.404Z,18.50
2023-02-23T19:39:15.457Z,18.05
2023-02-23T19:41:45.539Z,18.42
2023-02-23T19:44:12.885Z,17.92
2023-02-23T19:46:40.299Z,19.35
2023-02-23T19:49:07.574Z,17.75
2023-02-23T19:51:36.107Z,18.40
2023-02-23T19:54:04.460Z,18.38
2023-02-23T19:56:31.436Z,17.98
2023-02-23T19:59:02.276Z,17.58
2023-02-23T20:01:29.935Z,18.90
2023-02-23T20:04:01.942Z,18.13
2023-02-23T20:06:38.716Z,19.02
2023-02-23T20:09:06.009Z,19.35
2023-02-23T20:11:33.698Z,19.13
2023-02-23T20:14:04.181Z,19.50
2023-02-23T20:16:31.854Z,18.65
2023-02-23T20:18:59.723Z,18.38
2023-02-23T20:21:31.340Z,18.95
2023-02-23T20:24:00.662Z,21.77
2023-02-23T20:26:35.394Z,18.27
2023-02-23T20:29:06.773Z,19.27
2023-02-23T20:31:36.723Z,18.95
2023-02-23T20:34:10.837Z,20.17
2023-02-23T20:36:38.729Z,20.60
2023-02-23T20:39:06.106Z,19.40
2023-02-23T20:41:33.287Z,20.25
2023-02-23T20:44:03.365Z,19.05
2023-02-23T20:46:30.920Z,19.75
2023-02-23T20:48:59.238Z,19.38
2023-02-23T20:51:27.486Z,19.60
2023-02-23T20:53:55.033Z,19.83
2023-02-23T20:56:22.271Z,18.90
2023-02-23T20:58:49.768Z,20.40
2023-02-23T21:01:22.735Z,20.63
2023-02-23T21:03:52.226Z,19.88
2023-02-23T21:06:21.929Z,20.88
2023-02-23T21:08:51.034Z,20.40
2023-02-23T21:11:20.050Z,20.90
2023-02-23T21:13:48.609Z,21.23
2023-02-23T21:16:19.008Z,21.40
2023-02-23T21:18:52.763Z,20.83
2023-02-23T21:21:20.852Z,20.98
2023-02-23T21:23:51.215Z,23.02
2023-02-23T21:26:21.524Z,23.25
2023-02-23T21:28:49.192Z,22.80
2023-02-23T21:31:16.817Z,22.80
2023-02-23T21:33:44.275Z,24.13
2023-02-23T21:36:13.077Z,24.40
2023-02-23T21:38:43.806Z,25.30
2023-02-23T21:41:14.152Z,25.95
2023-02-23T21:43:44.375Z,26.55
2023-02-23T21:46:16.105Z,26.52
2023-02-23T21:48:44.271Z,25.80
2023-02-23T21:51:14.658Z,25.73
2023-02-23T21:53:44.542Z,24.70
2023-02-23T21:56:20.220Z,25.23
2023-02-23T21:58:51.808Z,23.88
2023-02-23T22:01:26.614Z,25.40
2023-02-23T22:03:55.110Z,24.85
2023-02-23T22:06:27.760Z,24.85
2023-02-23T22:08:56.224Z,25.30
2023-02-23T22:11:27.325Z,25.00
2023-02-23T22:13:58.768Z,23.95
2023-02-23T22:16:30.698Z,24.02
2023-02-23T22:18:58.726Z,23.70
2023-02-23T22:21:25.616Z,24.65
2023-02-23T22:23:54.086Z,24.05
2023-02-23T22:26:21.079Z,23.50
2023-02-23T22:28:48.351Z,23.17
2023-02-23T22:31:15.601Z,24.60
2023-02-23T22:33:44.349Z,24.02
2023-02-23T22:36:14.664Z,23.60
2023-02-23T22:38:42.025Z,23.25
2023-02-23T22:41:10.402Z,24.73
2023-02-23T22:43:39.335Z,22.48
2023-02-23T22:46:07.830Z,23.88
2023-02-23T22:48:36.523Z,22.90
2023-02-23T22:51:07.717Z,24.85
2023-02-23T22:53:34.924Z,25.15
2023-02-23T22:56:03.876Z,25.40
2023-02-23T22:58:32.667Z,24.90
2023-02-23T23:01:04.234Z,23.83
2023-02-23T23:03:46.235Z,24.27
2023-02-23T23:06:22.672Z,26.55
2023-02-23T23:08:56.695Z,24.63
2023-02-23T23:11:28.063Z,24.77
2023-02-23T23:14:02.827Z,24.17
2023-02-23T23:16:34.650Z,24.85
2023-02-23T23:19:12.070Z,22.77
2023-02-23T23:21:42.502Z,24.13
2023-02-23T23:24:15.579Z,25.45
2023-02-23T23:26:44.213Z,26.73
2023-02-23T23:29:14.629Z,26.17
2023-02-23T23:31:46.401Z,25.70
2023-02-23T23:34:16.492Z,25.80
2023-02-23T23:36:48.674Z,25.73
2023-02-23T23:39:22.644Z,26.05
2023-02-23T23:41:50.344Z,26.45
2023-02-23T23:44:24.601Z,26.02
2023-02-23T23:46:52.655Z,24.40
2023-02-23T23:49:25.424Z,24.42
2023-02-23T23:54:31.016Z,22.85
2023-02-23T23:57:01.537Z,21.98
2023-02-23T23:59:31.533Z,21.23
